Time;durP1;ratioP1;P1;durP2;ratioP2;P2;SDS_P1;SDS_P2;PMS_P1;PMS_P2;Temp;Humidity;BMP_temperature;BMP_pressure;BME280_temperature;BME280_humidity;BME280_pressure;Samples;Min_cycle;Max_cycle;Signal;HPM_P1;HPM_P2
2023/03/31 00:00:35;;;;;;;;;;;;;;;17.59;42.96;100984.81;4994031;28;819;-58
2023/03/31 00:03:01;;;;;;;;;;;;;;;19.06;39.52;100977.53;4998978;28;1993;-58
2023/03/31 00:05:27;;;;;;;;;;;;;;;17.52;42.48;100969.72;4986399;28;1205;-56
2023/03/31 00:08:00;;;;;;;;;;;;;;;16.87;43.59;100973.72;4999206;28;1033;-58
2023/03/31 00:10:28;;;;;;;;;;;;;;;16.77;43.50;100974.53;4999175;28;993;-58
2023/03/31 00:12:54;;;;;;;;;;;;;;;17.28;43.21;100962.81;4998333;28;866;-57
2023/03/31 00:15:20;;;;;;;;;;;;;;;16.84;43.67;100957.78;4998622;28;1133;-57
2023/03/31 00:17:48;;;;;;;;;;;;;;;16.73;44.16;100962.44;4998791;28;1163;-56
2023/03/31 00:20:14;;;;;;;;;;;;;;;17.13;43.36;100951.81;4998605;28;1075;-56
2023/03/31 00:22:45;;;;;;;;;;;;;;;16.60;44.04;100951.94;4998293;28;1918;-56
2023/03/31 00:25:11;;;;;;;;;;;;;;;17.98;41.72;100950.44;4998468;28;925;-56
2023/03/31 00:27:37;;;;;;;;;;;;;;;16.88;43.99;100947.09;4998578;28;1065;-56
2023/03/31 00:30:03;;;;;;;;;;;;;;;18.01;42.02;100941.63;4998409;28;1040;-56
2023/03/31 00:32:28;;;;;;;;;;;;;;;17.72;41.93;100928.44;4998510;28;1223;-56
2023/03/31 00:34:54;;;;;;;;;;;;;;;17.06;43.38;100930.09;4998765;28;1127;-57
2023/03/31 00:37:21;;;;;;;;;;;;;;;16.70;43.84;100937.41;4996896;28;1130;-56
2023/03/31 00:39:48;;;;;;;;;;;;;;;17.54;42.59;100920.75;4999114;28;1223;-56
2023/03/31 00:42:13;;;;;;;;;;;;;;;16.72;44.27;100927.81;4996977;28;1568;-57
2023/03/31 00:44:58;;;;;;;;;;;;;;;18.10;41.63;100920.69;4998078;28;1906;-56
2023/03/31 00:47:24;;;;;;;;;;;;;;;17.27;43.33;100928.19;4998125;28;1112;-57
2023/03/31 00:49:50;;;;;;;;;;;;;;;16.79;43.72;100926.72;4998614;28;1053;-57
2023/03/31 00:52:23;;;;;;;;;;;;;;;17.64;42.40;100919.94;4998301;28;1204;-57
2023/03/31 00:54:50;;;;;;;;;;;;;;;16.83;43.80;100925.94;5028125;28;1072;-56
2023/03/31 00:57:16;;;;;;;;;;;;;;;16.66;44.35;100917.94;4998330;28;1115;-56
2023/03/31 00:59:49;;;;;;;;;;;;;;;17.32;42.91;100907.31;4997727;28;1136;-56
2023/03/31 01:02:14;;;;;;;;;;;;;;;17.36;43.13;100898.25;5000150;28;1551;-58
2023/03/31 01:04:43;;;;;;;;;;;;;;;19.05;39.41;100893.19;5028612;28;1965;-57
2023/03/31 01:07:29;;;;;;;;;;;;;;;17.41;42.58;100884.47;4998013;28;1080;-57
2023/03/31 01:09:59;;;;;;;;;;;;;;;17.10;43.39;100898.25;4997935;28;1299;-58
2023/03/31 01:12:25;;;;;;;;;;;;;;;17.42;42.62;100888.88;4997490;28;1079;-58
2023/03/31 01:14:50;;;;;;;;;;;;;;;16.75;43.72;100888.81;4997583;28;1056;-58
2023/03/31 01:17:17;;;;;;;;;;;;;;;16.63;43.49;100891.00;5029405;28;1109;-56
2023/03/31 01:19:56;;;;;;;;;;;;;;;17.16;43.21;100892.75;5029034;28;1140;-56
2023/03/31 01:22:31;;;;;;;;;;;;;;;16.76;43.96;100882.25;5028751;28;1119;-56
2023/03/31 01:25:08;;;;;;;;;;;;;;;17.91;42.10;100881.13;4996880;28;1974;-58
2023/03/31 01:27:34;;;;;;;;;;;;;;;17.82;42.00;100882.78;4997505;28;1161;-57
2023/03/31 01:30:00;;;;;;;;;;;;;;;16.92;43.42;100872.13;4997871;28;1076;-58
2023/03/31 01:32:45;;;;;;;;;;;;;;;16.67;43.50;100866.59;4996857;28;1071;-57
2023/03/31 01:35:29;;;;;;;;;;;;;;;17.21;43.04;100866.09;4997307;28;1052;-58
2023/03/31 01:38:06;;;;;;;;;;;;;;;16.65;44.02;100864.13;4997036;28;932;-58
2023/03/31 01:40:32;;;;;;;;;;;;;;;17.87;41.66;100852.50;4996084;28;1180;-58
2023/03/31 01:43:06;;;;;;;;;;;;;;;16.76;43.81;100860.28;4997141;28;2000;-58
2023/03/31 01:45:32;;;;;;;;;;;;;;;17.38;43.04;100854.81;4996671;28;1141;-58
2023/03/31 01:47:58;;;;;;;;;;;;;;;17.25;43.11;100847.13;4997411;28;1236;-58
2023/03/31 01:50:34;;;;;;;;;;;;;;;16.64;43.84;100854.22;4995973;28;1081;-58
2023/03/31 01:53:02;;;;;;;;;;;;;;;16.52;44.17;100845.41;4979947;28;1169;-57
2023/03/31 01:55:31;;;;;;;;;;;;;;;17.01;43.72;100844.13;4995857;28;1244;-58
2023/03/31 01:57:59;;;;;;;;;;;;;;;16.52;44.05;100840.75;4995641;28;1119;-57
2023/03/31 02:00:28;;;;;;;;;;;;;;;18.11;41.62;100831.50;4995433;28;1057;-57
2023/03/31 02:03:03;;;;;;;;;;;;;;;16.86;43.74;100833.94;4995511;28;1962;-57
2023/03/31 02:05:33;;;;;;;;;;;;;;;16.55;44.35;100829.22;4983887;28;1212;-56
2023/03/31 02:08:00;;;;;;;;;;;;;;;17.61;42.48;100814.06;5028453;28;1180;-56
2023/03/31 02:10:26;;;;;;;;;;;;;;;16.64;44.06;100815.78;5028785;28;1049;-57
2023/03/31 02:12:56;;;;;;;;;;;;;;;16.38;44.23;100813.00;4995322;28;1161;-56
2023/03/31 02:15:26;;;;;;;;;;;;;;;17.82;41.94;100805.75;5028616;28;1152;-56
2023/03/31 02:17:53;;;;;;;;;;;;;;;16.68;44.13;100805.09;4996006;28;1103;-58
2023/03/31 02:20:19;;;;;;;;;;;;;;;17.24;43.37;100796.03;4996616;28;1187;-56
2023/03/31 02:22:45;;;;;;;;;;;;;;;17.41;42.69;100791.03;5011366;28;1902;-56
2023/03/31 02:25:11;;;;;;;;;;;;;;;16.53;44.29;100790.22;5018133;28;893;-57
2023/03/31 02:27:41;;;;;;;;;;;;;;;18.25;40.96;100779.41;4976009;28;1133;-58
2023/03/31 02:30:08;;;;;;;;;;;;;;;16.97;43.42;100785.31;5028099;28;1144;-57
2023/03/31 02:32:37;;;;;;;;;;;;;;;16.48;44.23;100783.91;5027980;28;1126;-58
2023/03/31 02:35:03;;;;;;;;;;;;;;;17.72;42.42;100779.94;4995468;28;1140;-58
2023/03/31 02:37:29;;;;;;;;;;;;;;;16.73;44.05;100783.09;4996217;28;1226;-58
2023/03/31 02:39:55;;;;;;;;;;;;;;;16.42;44.06;100775.69;4996372;28;1160;-57
2023/03/31 02:42:21;;;;;;;;;;;;;;;17.19;43.05;100777.59;5011450;28;1310;-57
2023/03/31 02:44:49;;;;;;;;;;;;;;;17.55;42.77;100779.44;4978700;28;1919;-56
2023/03/31 02:47:15;;;;;;;;;;;;;;;19.01;39.27;100781.88;4995021;28;1022;-57
2023/03/31 02:49:53;;;;;;;;;;;;;;;17.52;42.41;100780.03;4994716;28;925;-57
2023/03/31 02:52:37;;;;;;;;;;;;;;;16.86;43.65;100779.00;4995276;28;1543;-57
2023/03/31 02:55:06;;;;;;;;;;;;;;;17.29;43.12;100774.00;5028048;28;1118;-57
2023/03/31 02:57:48;;;;;;;;;;;;;;;17.22;43.02;100768.81;4995436;28;1153;-56
2023/03/31 03:00:23;;;;;;;;;;;;;;;16.55;43.89;100763.34;4995078;28;1160;-56
2023/03/31 03:02:58;;;;;;;;;;;;;;;17.73;42.25;100761.50;4987613;28;1902;-57
2023/03/31 03:05:53;;;;;;;;;;;;;;;16.72;43.90;100754.03;4978596;28;1141;-57
2023/03/31 03:08:37;;;;;;;;;;;;;;;18.29;40.92;100760.41;4983167;28;1170;-56
2023/03/31 03:11:06;;;;;;;;;;;;;;;16.97;43.66;100755.97;4996591;28;1096;-58
2023/03/31 03:13:36;;;;;;;;;;;;;;;17.40;43.12;100750.06;4996113;28;877;-57
2023/03/31 03:16:41;;;;;;;;;;;;;;;17.56;42.34;100748.94;5027300;28;1079;-57
2023/03/31 03:19:06;;;;;;;;;;;;;;;16.70;43.92;100736.97;4936165;29;1394;-55
2023/03/31 03:21:32;;;;;;;;;;;;;;;17.16;43.50;100736.13;4920329;29;1059;-55
2023/03/31 03:23:58;;;;;;;;;;;;;;;17.00;43.36;100730.66;4963495;28;1894;-55
2023/03/31 03:26:26;;;;;;;;;;;;;;;16.75;44.34;100728.75;4996096;28;962;-54
2023/03/31 03:28:55;;;;;;;;;;;;;;;18.25;40.74;100727.13;4997779;28;1053;-56
2023/03/31 03:31:22;;;;;;;;;;;;;;;16.96;43.59;100737.81;4999532;28;1108;-56
2023/03/31 03:33:48;;;;;;;;;;;;;;;16.83;43.82;100735.59;4999984;28;1068;-56
2023/03/31 03:36:14;;;;;;;;;;;;;;;17.27;43.00;100724.00;4999790;28;1160;-53
2023/03/31 03:38:39;;;;;;;;;;;;;;;16.68;43.80;100725.47;4999557;28;846;-58
2023/03/31 03:41:05;;;;;;;;;;;;;;;17.88;41.99;100727.59;4999568;28;1228;-57
2023/03/31 03:43:31;;;;;;;;;;;;;;;16.84;43.81;100738.06;4998783;28;1906;-60
2023/03/31 03:45:56;;;;;;;;;;;;;;;16.50;43.92;100740.56;4999256;28;1267;-58
2023/03/31 03:48:22;;;;;;;;;;;;;;;17.38;42.70;100727.56;4999153;28;1056;-56
2023/03/31 03:50:47;;;;;;;;;;;;;;;16.57;44.14;100727.38;4999026;28;987;-55
2023/03/31 03:53:13;;;;;;;;;;;;;;;16.99;43.70;100734.50;4999080;28;1236;-52
2023/03/31 03:55:39;;;;;;;;;;;;;;;16.73;43.79;100731.78;4998811;28;1107;-57
2023/03/31 03:58:04;;;;;;;;;;;;;;;17.84;41.85;100727.34;4997595;28;1045;-57
2023/03/31 04:00:30;;;;;;;;;;;;;;;18.61;40.02;100723.28;4998159;28;1147;-57
2023/03/31 04:02:55;;;;;;;;;;;;;;;17.18;42.84;100721.03;4997572;28;1907;-58
2023/03/31 04:05:21;;;;;;;;;;;;;;;16.72;43.45;100724.63;4997610;28;1033;-58
2023/03/31 04:07:47;;;;;;;;;;;;;;;16.51;43.75;100717.47;4997815;28;1041;-54
2023/03/31 04:10:12;;;;;;;;;;;;;;;17.28;42.76;100706.44;4997962;28;1029;-56
2023/03/31 04:12:38;;;;;;;;;;;;;;;16.72;43.82;100705.41;4998466;28;1056;-57
2023/03/31 04:15:04;;;;;;;;;;;;;;;18.54;40.17;100707.09;5018853;28;916;-57
2023/03/31 04:17:33;;;;;;;;;;;;;;;18.38;40.33;100714.63;4984610;28;1168;-52
2023/03/31 04:20:17;;;;;;;;;;;;;;;17.18;42.97;100706.44;4997382;28;1056;-57
2023/03/31 04:22:46;;;;;;;;;;;;;;;16.80;43.56;100709.50;4979308;28;1939;-57
2023/03/31 04:25:15;;;;;;;;;;;;;;;17.82;42.02;100709.47;4981986;28;1240;-58
2023/03/31 04:27:49;;;;;;;;;;;;;;;17.00;43.45;100692.22;4998041;28;1215;-57
2023/03/31 04:30:21;;;;;;;;;;;;;;;17.20;43.46;100696.00;4998670;28;1155;-57
2023/03/31 04:32:50;;;;;;;;;;;;;;;17.85;41.50;100696.00;4998150;28;1021;-57
2023/03/31 04:35:19;;;;;;;;;;;;;;;16.91;43.43;100699.38;4998766;28;1036;-59
2023/03/31 04:37:46;;;;;;;;;;;;;;;16.73;43.84;100692.50;4991815;28;1397;-56
2023/03/31 04:40:11;;;;;;;;;;;;;;;17.17;42.93;100691.06;4999250;28;1102;-53
2023/03/31 04:42:37;;;;;;;;;;;;;;;17.83;42.13;100691.88;4998239;28;1072;-52
2023/03/31 04:45:03;;;;;;;;;;;;;;;19.23;38.92;100695.13;4994262;28;1978;-55
2023/03/31 04:47:28;;;;;;;;;;;;;;;17.60;42.07;100688.72;4995940;28;1101;-51
2023/03/31 04:49:54;;;;;;;;;;;;;;;16.99;43.19;100684.25;4996214;28;1044;-55
2023/03/31 04:52:19;;;;;;;;;;;;;;;17.53;42.40;100693.66;4996302;28;1021;-56
2023/03/31 04:54:45;;;;;;;;;;;;;;;17.32;42.71;100688.28;4996302;28;1088;-55
2023/03/31 04:57:11;;;;;;;;;;;;;;;16.74;43.61;100685.91;4984527;28;1042;-53
2023/03/31 04:59:36;;;;;;;;;;;;;;;16.64;43.26;100685.94;4981322;28;1474;-58
2023/03/31 05:02:02;;;;;;;;;;;;;;;17.76;42.06;100686.69;4997698;28;1289;-56
2023/03/31 05:04:27;;;;;;;;;;;;;;;16.83;43.74;100676.03;4997927;28;1907;-57
2023/03/31 05:06:53;;;;;;;;;;;;;;;16.47;44.03;100670.56;4997753;28;1092;-52
2023/03/31 05:09:19;;;;;;;;;;;;;;;17.57;42.38;100659.84;4978017;28;1197;-54
2023/03/31 05:11:45;;;;;;;;;;;;;;;17.36;42.20;100661.88;4985561;28;1061;-56
2023/03/31 05:14:10;;;;;;;;;;;;;;;16.91;43.59;100656.25;4997491;28;1081;-50
2023/03/31 05:16:36;;;;;;;;;;;;;;;16.63;44.15;100656.81;4997502;28;1115;-56
2023/03/31 05:19:01;;;;;;;;;;;;;;;16.45;44.46;100658.22;4997784;28;1172;-57
2023/03/31 05:21:29;;;;;;;;;;;;;;;16.21;44.87;100647.78;4997638;28;1036;-57
2023/03/31 05:23:55;;;;;;;;;;;;;;;16.07;45.06;100653.84;4997204;28;1979;-57
2023/03/31 05:26:23;;;;;;;;;;;;;;;15.94;45.32;100643.38;4990586;28;850;-58
2023/03/31 05:28:49;;;;;;;;;;;;;;;15.77;45.88;100656.47;4991417;28;1188;-56
2023/03/31 05:31:15;;;;;;;;;;;;;;;15.69;46.12;100639.47;4995514;28;1357;-54
2023/03/31 05:33:41;;;;;;;;;;;;;;;15.60;46.17;100640.25;4997699;28;1105;-57
2023/03/31 05:36:08;;;;;;;;;;;;;;;15.49;46.55;100626.53;4992077;28;1177;-56
2023/03/31 05:38:33;;;;;;;;;;;;;;;15.38;46.57;100638.56;4988805;28;1161;-54
2023/03/31 05:40:59;;;;;;;;;;;;;;;15.30;46.88;100639.09;4997385;28;1172;-55
2023/03/31 05:43:24;;;;;;;;;;;;;;;15.14;47.20;100640.94;4997178;28;1914;-56
2023/03/31 05:45:50;;;;;;;;;;;;;;;15.20;47.11;100645.34;4996615;28;1211;-56
2023/03/31 05:48:16;;;;;;;;;;;;;;;16.77;43.39;100645.00;4997017;28;1119;-55
2023/03/31 05:50:41;;;;;;;;;;;;;;;15.94;45.13;100640.66;4987115;28;1179;-58
2023/03/31 05:53:07;;;;;;;;;;;;;;;15.56;46.03;100642.75;4996567;28;1129;-54
2023/03/31 05:55:34;;;;;;;;;;;;;;;15.33;46.56;100633.91;4996932;28;1067;-54
2023/03/31 05:58:00;;;;;;;;;;;;;;;15.19;46.93;100640.94;4996876;28;1044;-50
2023/03/31 06:00:26;;;;;;;;;;;;;;;15.20;46.94;100626.16;4997013;28;1087;-52
2023/03/31 06:02:51;;;;;;;;;;;;;;;16.84;43.20;100639.19;4992836;28;1914;-54
2023/03/31 06:05:17;;;;;;;;;;;;;;;16.04;45.04;100637.09;4986878;28;1100;-53
2023/03/31 06:07:42;;;;;;;;;;;;;;;15.61;45.74;100650.13;4996836;28;1183;-52
2023/03/31 06:10:09;;;;;;;;;;;;;;;15.34;46.38;100634.72;4996663;28;1024;-54
2023/03/31 06:12:35;;;;;;;;;;;;;;;15.18;46.95;100634.66;4996683;28;1053;-55
2023/03/31 06:15:01;;;;;;;;;;;;;;;16.11;44.95;100636.81;4995456;28;902;-53
2023/03/31 06:17:26;;;;;;;;;;;;;;;16.69;43.29;100631.00;4996593;28;1156;-56
2023/03/31 06:19:52;;;;;;;;;;;;;;;15.85;45.09;100625.81;4996643;28;1192;-54
2023/03/31 06:22:17;;;;;;;;;;;;;;;15.59;45.93;100631.22;4996402;28;1052;-57
2023/03/31 06:24:43;;;;;;;;;;;;;;;15.33;46.63;100625.69;4996594;28;1906;-54
2023/03/31 06:27:09;;;;;;;;;;;;;;;15.83;45.57;100619.78;4996009;28;1052;-56
2023/03/31 06:29:34;;;;;;;;;;;;;;;17.05;42.54;100619.94;4994707;28;1239;-54
2023/03/31 06:32:00;;;;;;;;;;;;;;;16.06;44.82;100619.28;4977386;28;1279;-53
2023/03/31 06:34:25;;;;;;;;;;;;;;;15.65;45.89;100619.16;4991166;28;1255;-52
2023/03/31 06:36:52;;;;;;;;;;;;;;;15.48;46.38;100626.81;4996667;28;1121;-52
2023/03/31 06:39:17;;;;;;;;;;;;;;;15.32;46.54;100620.44;4996315;28;1156;-53
2023/03/31 06:41:43;;;;;;;;;;;;;;;15.34;46.66;100624.56;4996941;28;1131;-49
2023/03/31 06:44:09;;;;;;;;;;;;;;;16.92;43.02;100613.13;4996092;28;1906;-53
2023/03/31 06:46:34;;;;;;;;;;;;;;;16.63;43.32;100613.72;4996309;28;1135;-51
2023/03/31 06:49:00;;;;;;;;;;;;;;;15.89;45.15;100615.94;4996460;28;1104;-54
2023/03/31 06:51:25;;;;;;;;;;;;;;;15.64;45.91;100622.19;4996074;28;931;-52
2023/03/31 06:53:51;;;;;;;;;;;;;;;15.50;46.11;100621.88;4996439;28;1184;-56
2023/03/31 06:56:17;;;;;;;;;;;;;;;15.34;46.77;100627.31;4996806;28;1099;-54
2023/03/31 06:58:42;;;;;;;;;;;;;;;16.89;42.97;100619.19;4996560;28;1084;-53
2023/03/31 07:01:10;;;;;;;;;;;;;;;16.38;44.03;100628.31;4996792;28;1080;-55
2023/03/31 07:03:35;;;;;;;;;;;;;;;15.80;45.42;100621.16;4997623;28;1927;-56
2023/03/31 07:06:01;;;;;;;;;;;;;;;15.60;46.10;100626.56;5000230;28;1075;-55
2023/03/31 07:08:27;;;;;;;;;;;;;;;15.35;46.31;100625.41;5000408;28;1111;-57
2023/03/31 07:10:53;;;;;;;;;;;;;;;16.31;44.34;100619.53;4998674;28;1508;-57
2023/03/31 07:13:19;;;;;;;;;;;;;;;16.80;42.94;100620.81;5000959;28;1143;-56
2023/03/31 07:15:47;;;;;;;;;;;;;;;15.97;45.19;100618.16;5000138;28;1238;-52
2023/03/31 07:18:14;;;;;;;;;;;;;;;15.68;45.65;100609.59;5000490;28;1201;-47
2023/03/31 07:20:40;;;;;;;;;;;;;;;15.42;46.46;100617.75;5000178;28;1208;-54
2023/03/31 07:23:07;;;;;;;;;;;;;;;15.36;46.63;100619.66;5031270;28;1906;-57
2023/03/31 07:25:33;;;;;;;;;;;;;;;16.94;42.79;100599.94;5031772;28;1152;-54
2023/03/31 07:27:58;;;;;;;;;;;;;;;16.36;44.18;100603.88;5025470;28;1226;-49
2023/03/31 07:30:24;;;;;;;;;;;;;;;15.81;45.33;100609.09;4990083;28;1161;-55
2023/03/31 07:32:50;;;;;;;;;;;;;;;15.59;45.80;100603.81;4999696;28;1129;-51
2023/03/31 07:35:15;;;;;;;;;;;;;;;15.43;46.15;100607.63;4999958;28;1247;-52
2023/03/31 07:37:42;;;;;;;;;;;;;;;16.60;43.60;100595.06;4999840;28;1123;-56
2023/03/31 07:40:11;;;;;;;;;;;;;;;16.28;44.13;100603.63;4999633;28;1128;-55
2023/03/31 07:42:37;;;;;;;;;;;;;;;15.75;45.67;100607.41;4999845;28;1076;-57
2023/03/31 07:45:05;;;;;;;;;;;;;;;15.48;46.08;100613.94;4999389;28;1981;-57
2023/03/31 07:47:30;;;;;;;;;;;;;;;15.31;46.74;100616.91;4999435;28;1071;-54
2023/03/31 07:49:56;;;;;;;;;;;;;;;16.80;43.34;100604.34;5000063;28;1179;-57
2023/03/31 07:52:23;;;;;;;;;;;;;;;16.43;43.57;100601.66;4999224;28;1230;-57
2023/03/31 07:54:48;;;;;;;;;;;;;;;15.85;45.30;100601.97;4999616;28;1095;-52
2023/03/31 07:57:15;;;;;;;;;;;;;;;15.59;45.69;100603.00;4999261;28;1072;-53
2023/03/31 07:59:41;;;;;;;;;;;;;;;15.36;46.33;100605.97;4999335;28;1131;-55
2023/03/31 08:02:06;;;;;;;;;;;;;;;15.22;46.74;100605.66;4999441;28;1060;-56
2023/03/31 08:04:32;;;;;;;;;;;;;;;16.42;44.17;100602.78;4998966;28;1992;-56
2023/03/31 08:06:57;;;;;;;;;;;;;;;16.43;43.61;100601.66;4999167;28;1131;-55
2023/03/31 08:09:23;;;;;;;;;;;;;;;15.74;45.25;100598.38;4999307;28;1080;-57
2023/03/31 08:11:49;;;;;;;;;;;;;;;15.54;45.76;100601.06;4999057;28;1135;-53
2023/03/31 08:14:14;;;;;;;;;;;;;;;15.30;46.40;100596.06;4998362;28;1064;-55
2023/03/31 08:16:40;;;;;;;;;;;;;;;16.45;43.96;100597.84;4997859;28;1151;-56
2023/03/31 08:19:06;;;;;;;;;;;;;;;16.87;42.63;100591.13;4998742;28;1128;-55
2023/03/31 08:21:31;;;;;;;;;;;;;;;15.96;45.07;100596.50;4998995;28;1040;-57
2023/03/31 08:23:57;;;;;;;;;;;;;;;15.55;46.07;100599.97;4998471;28;1906;-52
2023/03/31 08:26:25;;;;;;;;;;;;;;;15.40;46.51;100593.38;4998419;28;1108;-57
2023/03/31 08:28:51;;;;;;;;;;;;;;;15.24;46.69;100602.63;4998920;28;841;-53
2023/03/31 08:31:17;;;;;;;;;;;;;;;15.96;45.23;100591.00;4998836;28;1076;-56
2023/03/31 08:33:43;;;;;;;;;;;;;;;16.98;42.71;100589.22;4998465;28;1095;-57
2023/03/31 08:36:09;;;;;;;;;;;;;;;16.02;44.85;100585.25;4998683;28;1107;-56
2023/03/31 08:38:40;;;;;;;;;;;;;;;15.64;45.62;100579.19;5018467;28;1135;-56
2023/03/31 08:41:26;;;;;;;;;;;;;;;15.37;46.34;100588.41;4997847;28;1132;-55
2023/03/31 08:43:52;;;;;;;;;;;;;;;15.77;45.51;100580.56;4998481;28;1975;-57
2023/03/31 08:46:18;;;;;;;;;;;;;;;17.16;42.33;100572.09;4998293;28;1103;-57
2023/03/31 08:48:47;;;;;;;;;;;;;;;16.29;44.25;100564.94;4997725;28;1132;-57
2023/03/31 08:51:20;;;;;;;;;;;;;;;15.80;45.43;100571.00;5028940;28;1158;-59
2023/03/31 08:54:07;;;;;;;;;;;;;;;15.49;45.95;100566.25;4998487;28;1167;-62
2023/03/31 08:56:38;;;;;;;;;;;;;;;15.43;46.29;100570.09;4997914;28;1185;-48
2023/03/31 08:59:03;;;;;;;;;;;;;;;17.00;42.61;100565.00;4998449;28;1446;-54
2023/03/31 09:01:35;;;;;;;;;;;;;;;16.12;44.76;100556.16;4997820;28;1168;-56
2023/03/31 09:04:15;;;;;;;;;;;;;;;15.65;45.93;100561.59;4998066;28;1975;-54
2023/03/31 09:06:41;;;;;;;;;;;;;;;15.39;46.47;100547.88;4985914;28;1037;-55
2023/03/31 09:09:09;;;;;;;;;;;;;;;15.96;45.23;100553.44;4998243;28;1204;-58
2023/03/31 09:11:35;;;;;;;;;;;;;;;17.06;42.47;100547.44;4984475;28;1077;-53
2023/03/31 09:14:13;;;;;;;;;;;;;;;16.05;44.62;100551.78;4996912;28;1252;-57
2023/03/31 09:16:39;;;;;;;;;;;;;;;15.73;45.69;100550.09;4991805;28;859;-53
2023/03/31 09:19:07;;;;;;;;;;;;;;;15.49;46.14;100546.25;4997547;28;1100;-55
2023/03/31 09:21:43;;;;;;;;;;;;;;;15.51;46.33;100541.31;5029862;28;1263;-55
2023/03/31 09:24:22;;;;;;;;;;;;;;;17.08;42.76;100534.22;4997806;28;1909;-56
2023/03/31 09:27:06;;;;;;;;;;;;;;;16.08;44.77;100534.78;4997149;28;1148;-54
2023/03/31 09:29:38;;;;;;;;;;;;;;;15.66;45.85;100529.56;5016335;28;1378;-55
2023/03/31 09:32:29;;;;;;;;;;;;;;;15.46;46.33;100525.69;4985594;28;1161;-57
2023/03/31 09:35:13;;;;;;;;;;;;;;;16.45;44.23;100524.53;4997138;28;1313;-57
2023/03/31 09:37:38;;;;;;;;;;;;;;;16.60;43.62;100512.72;5029281;28;1131;-55
2023/03/31 09:40:10;;;;;;;;;;;;;;;15.87;45.19;100522.19;5028680;28;1103;-59
2023/03/31 09:42:36;;;;;;;;;;;;;;;15.55;46.21;100517.75;4997668;28;1140;-56
2023/03/31 09:45:01;;;;;;;;;;;;;;;15.42;46.33;100516.38;5028639;28;1909;-49
2023/03/31 09:47:33;;;;;;;;;;;;;;;15.67;45.93;100517.47;4985982;28;993;-58
2023/03/31 09:49:58;;;;;;;;;;;;;;;17.06;42.66;100518.00;4996158;28;1021;-54
2023/03/31 09:52:24;;;;;;;;;;;;;;;16.11;44.76;100508.72;4996603;28;1260;-58
2023/03/31 09:54:50;;;;;;;;;;;;;;;15.70;45.85;100511.47;4996963;28;1224;-56
2023/03/31 09:57:23;;;;;;;;;;;;;;;15.53;46.10;100511.75;4996140;28;1280;-56
2023/03/31 09:59:51;;;;;;;;;;;;;;;15.29;46.90;100505.94;4996896;28;1264;-53
2023/03/31 10:02:26;;;;;;;;;;;;;;;16.52;44.03;100499.56;4980320;28;1314;-65
2023/03/31 10:04:52;;;;;;;;;;;;;;;16.49;43.94;100500.13;4988101;28;1969;-53
2023/03/31 10:07:21;;;;;;;;;;;;;;;15.82;45.64;100494.75;4997037;28;1017;-57
2023/03/31 10:09:47;;;;;;;;;;;;;;;15.52;46.19;100501.88;5010371;28;1259;-53
2023/03/31 10:12:16;;;;;;;;;;;;;;;15.33;46.86;100494.19;4991334;28;1096;-56
2023/03/31 10:14:48;;;;;;;;;;;;;;;15.20;46.95;100494.69;5028795;28;1116;-56
2023/03/31 10:17:14;;;;;;;;;;;;;;;16.07;45.24;100485.69;4996661;28;1168;-60
2023/03/31 10:19:45;;;;;;;;;;;;;;;16.94;42.91;100484.56;4996869;28;1113;-57
2023/03/31 10:22:15;;;;;;;;;;;;;;;15.85;45.62;100469.53;4996827;28;1120;-55
2023/03/31 10:24:42;;;;;;;;;;;;;;;15.52;46.20;100479.94;4996837;28;1981;-54
2023/03/31 10:27:23;;;;;;;;;;;;;;;15.28;46.94;100461.28;4996333;28;1100;-58
2023/03/31 10:29:52;;;;;;;;;;;;;;;15.25;47.04;100467.31;4995650;28;903;-57
2023/03/31 10:32:22;;;;;;;;;;;;;;;16.89;43.30;100455.22;4982962;28;1018;-54
2023/03/31 10:34:48;;;;;;;;;;;;;;;16.24;44.71;100445.06;5028402;28;1056;-53
2023/03/31 10:37:16;;;;;;;;;;;;;;;15.73;45.69;100445.13;5028629;28;1119;-55
2023/03/31 10:39:41;;;;;;;;;;;;;;;15.47;46.55;100442.38;5000431;28;1104;-54
2023/03/31 10:42:07;;;;;;;;;;;;;;;15.25;46.93;100439.94;5000870;28;988;-54
2023/03/31 10:44:36;;;;;;;;;;;;;;;15.91;45.62;100435.53;4997356;28;1990;-58
2023/03/31 10:47:22;;;;;;;;;;;;;;;17.00;43.01;100425.78;4998837;28;1638;-56
2023/03/31 10:49:49;;;;;;;;;;;;;;;15.86;45.48;100419.09;5000094;28;1957;-53
2023/03/31 10:52:14;;;;;;;;;;;;;;;15.52;46.33;100416.91;5000177;28;1069;-56
2023/03/31 10:54:45;;;;;;;;;;;;;;;15.30;46.90;100414.44;5000773;28;1219;-49
2023/03/31 10:57:10;;;;;;;;;;;;;;;15.17;47.06;100422.09;5000421;28;1041;-57
2023/03/31 10:59:36;;;;;;;;;;;;;;;16.67;43.97;100399.84;5000458;28;1103;-55
2023/03/31 11:02:05;;;;;;;;;;;;;;;16.32;44.59;100397.00;5000722;28;1091;-61
2023/03/31 11:04:33;;;;;;;;;;;;;;;15.72;46.07;100388.66;5000387;28;1979;-51
2023/03/31 11:07:01;;;;;;;;;;;;;;;15.40;46.92;100387.88;5000342;28;1100;-55
2023/03/31 11:09:46;;;;;;;;;;;;;;;15.21;47.38;100382.13;5000397;28;1462;-58
2023/03/31 11:12:35;;;;;;;;;;;;;;;16.47;44.46;100382.38;5000537;28;1056;-55
2023/03/31 11:15:03;;;;;;;;;;;;;;;16.77;43.37;100375.91;4999812;28;1408;-58
2023/03/31 11:17:29;;;;;;;;;;;;;;;15.93;45.57;100380.41;5000102;28;1117;-57
2023/03/31 11:20:00;;;;;;;;;;;;;;;15.56;46.53;100371.44;5000359;28;1156;-57
2023/03/31 11:22:45;;;;;;;;;;;;;;;15.36;46.80;100370.34;5018558;28;1413;-57
2023/03/31 11:25:34;;;;;;;;;;;;;;;15.21;47.14;100367.63;5000501;28;1883;-54
2023/03/31 11:28:12;;;;;;;;;;;;;;;16.91;43.42;100369.78;4999410;28;1248;-56
2023/03/31 11:30:58;;;;;;;;;;;;;;;16.16;44.95;100370.72;4999748;28;1120;-53
2023/03/31 11:33:34;;;;;;;;;;;;;;;15.62;46.26;100372.22;4998660;28;1159;-58
2023/03/31 11:36:10;;;;;;;;;;;;;;;15.41;46.63;100361.28;4999943;28;1137;-59
2023/03/31 11:38:49;;;;;;;;;;;;;;;16.30;45.02;100360.81;5000305;28;1116;-58
2023/03/31 11:41:30;;;;;;;;;;;;;;;16.46;44.11;100361.53;4999460;28;870;-48
2023/03/31 11:43:59;;;;;;;;;;;;;;;15.73;46.06;100357.41;4983346;28;1906;-53
2023/03/31 11:46:42;;;;;;;;;;;;;;;15.50;46.71;100347.84;4978854;28;1291;-55
2023/03/31 11:49:20;;;;;;;;;;;;;;;15.30;46.91;100341.28;4979996;28;1152;-54
2023/03/31 11:51:47;;;;;;;;;;;;;;;16.29;44.78;100334.47;4980057;28;1275;-53
2023/03/31 11:54:25;;;;;;;;;;;;;;;16.73;43.87;100336.41;4986897;28;1009;-54
2023/03/31 11:56:50;;;;;;;;;;;;;;;15.82;45.69;100330.25;4984305;28;1310;-51
2023/03/31 11:59:16;;;;;;;;;;;;;;;15.57;46.41;100327.28;4999417;28;1235;-53
2023/03/31 12:01:56;;;;;;;;;;;;;;;15.38;46.88;100318.81;4986570;28;1088;-52
2023/03/31 12:04:41;;;;;;;;;;;;;;;15.21;47.38;100321.88;5031084;28;1906;-55
2023/03/31 12:07:25;;;;;;;;;;;;;;;16.90;43.52;100314.06;4999312;28;1207;-53
2023/03/31 12:09:52;;;;;;;;;;;;;;;16.14;45.17;100307.09;4987521;28;1106;-60
2023/03/31 12:12:19;;;;;;;;;;;;;;;15.67;46.34;100303.69;4994229;28;1277;-55
2023/03/31 12:14:47;;;;;;;;;;;;;;;15.42;46.90;100307.31;4979531;28;1426;-59
2023/03/31 12:17:14;;;;;;;;;;;;;;;15.25;47.16;100299.41;4997453;28;1260;-55
2023/03/31 12:19:54;;;;;;;;;;;;;;;15.13;47.64;100289.56;4982309;28;1298;-55
2023/03/31 12:22:33;;;;;;;;;;;;;;;16.74;43.87;100298.78;4979419;28;1244;-56
2023/03/31 12:24:59;;;;;;;;;;;;;;;16.04;45.27;100297.00;5010286;28;1910;-54
2023/03/31 12:27:26;;;;;;;;;;;;;;;15.53;46.63;100292.50;4979976;28;1104;-55
2023/03/31 12:30:21;;;;;;;;;;;;;;;15.36;46.89;100288.16;4994089;28;1049;-55
2023/03/31 12:32:57;;;;;;;;;;;;;;;15.19;47.25;100290.38;4993602;28;1375;-55
2023/03/31 12:35:23;;;;;;;;;;;;;;;16.41;44.57;100291.03;4998760;28;1033;-55
2023/03/31 12:37:51;;;;;;;;;;;;;;;16.79;43.55;100284.19;4997395;28;1251;-57
2023/03/31 12:40:30;;;;;;;;;;;;;;;15.88;45.73;100271.59;4989881;28;1120;-48
2023/03/31 12:42:59;;;;;;;;;;;;;;;15.53;46.87;100270.59;5013487;28;892;-54
2023/03/31 12:45:28;;;;;;;;;;;;;;;15.33;47.02;100277.75;4998760;28;1275;-55
2023/03/31 12:48:06;;;;;;;;;;;;;;;15.17;47.44;100267.94;4998588;28;1156;-55
2023/03/31 12:50:32;;;;;;;;;;;;;;;16.38;44.92;100263.34;5013465;28;1404;-59
2023/03/31 12:53:00;;;;;;;;;;;;;;;16.44;44.44;100262.22;4980568;28;1247;-52
2023/03/31 12:55:45;;;;;;;;;;;;;;;15.75;46.31;100262.00;4998587;28;1083;-52
2023/03/31 12:58:27;;;;;;;;;;;;;;;15.42;46.90;100258.00;5029535;28;1053;-56